Time;durP1;ratioP1;P1;durP2;ratioP2;P2;SDS_P1;SDS_P2;PMS_P1;PMS_P2;Temp;Humidity;BMP_temperature;BMP_pressure;BME280_temperature;BME280_humidity;BME280_pressure;Samples;Min_cycle;Max_cycle;Signal;HPM_P1;HPM_P2
2022/06/27 00:02:08;;;;;;;15.05;4.32;;;22.70;90.10;;;;;;5073336;28;20035;-63
2022/06/27 00:04:33;;;;;;;8.70;4.68;;;22.70;90.10;;;;;;5073590;28;20102;-63
2022/06/27 00:06:59;;;;;;;8.05;4.30;;;22.60;90.30;;;;;;5073580;28;20028;-63
2022/06/27 00:09:25;;;;;;;8.23;4.60;;;22.70;90.60;;;;;;5072182;28;20033;-63
2022/06/27 00:11:50;;;;;;;6.78;4.05;;;22.60;90.70;;;;;;5073891;28;20028;-63
2022/06/27 00:14:16;;;;;;;6.63;4.47;;;22.60;90.70;;;;;;5072816;28;20062;-63
2022/06/27 00:16:42;;;;;;;7.95;4.22;;;22.60;90.70;;;;;;5072050;28;20032;-63
2022/06/27 00:19:07;;;;;;;7.20;4.45;;;22.60;90.80;;;;;;5072570;28;20028;-63
2022/06/27 00:21:33;;;;;;;8.10;3.90;;;22.60;90.90;;;;;;5071074;28;20044;-63
2022/06/27 00:23:59;;;;;;;10.70;4.90;;;22.60;91.00;;;;;;5071576;28;20115;-63
2022/06/27 00:26:25;;;;;;;8.50;4.28;;;22.50;91.00;;;;;;5073548;28;20032;-63
2022/06/27 00:28:50;;;;;;;6.75;5.20;;;22.60;91.10;;;;;;5072052;28;20020;-63
2022/06/27 00:31:16;;;;;;;9.57;4.72;;;22.60;91.20;;;;;;5062044;28;20452;-63
2022/06/27 00:33:42;;;;;;;8.40;4.75;;;22.60;91.50;;;;;;5067567;28;20028;-64
2022/06/27 00:36:08;;;;;;;15.05;4.63;;;22.50;91.20;;;;;;5062498;28;20490;-63
2022/06/27 00:38:33;;;;;;;7.50;4.30;;;22.50;91.20;;;;;;5057979;28;20155;-62
2022/06/27 00:40:59;;;;;;;7.10;4.30;;;22.50;91.30;;;;;;5073577;28;20049;-63
2022/06/27 00:43:25;;;;;;;6.72;3.75;;;22.50;91.30;;;;;;5072480;28;20020;-63
2022/06/27 00:45:50;;;;;;;6.78;4.25;;;22.50;91.40;;;;;;5059847;28;20040;-63
2022/06/27 00:48:16;;;;;;;9.60;4.35;;;22.50;91.50;;;;;;5069966;28;20028;-63
2022/06/27 00:50:42;;;;;;;7.40;4.50;;;22.50;91.60;;;;;;5073186;28;20036;-63
2022/06/27 00:53:10;;;;;;;6.40;4.25;;;22.50;91.60;;;;;;5071346;28;20024;-63
2022/06/27 00:55:36;;;;;;;7.75;4.40;;;22.50;91.50;;;;;;5073279;28;20553;-63
2022/06/27 00:58:02;;;;;;;6.78;4.45;;;22.50;91.50;;;;;;5071737;28;20028;-63
2022/06/27 01:00:29;;;;;;;8.65;4.13;;;22.50;91.50;;;;;;5060393;28;20061;-63
2022/06/27 01:02:54;;;;;;;9.18;4.53;;;22.50;91.60;;;;;;5071776;28;20052;-63
2022/06/27 01:05:20;;;;;;;7.22;4.13;;;22.40;91.50;;;;;;5060389;28;20080;-63
2022/06/27 01:07:47;;;;;;;6.38;4.28;;;22.50;91.50;;;;;;5072169;28;20538;-63
2022/06/27 01:10:13;;;;;;;6.95;4.53;;;22.40;91.50;;;;;;5071552;28;20043;-63
2022/06/27 01:12:40;;;;;;;5.40;4.00;;;22.40;91.50;;;;;;5071584;28;20111;-63
2022/06/27 01:15:06;;;;;;;9.23;4.80;;;22.40;91.60;;;;;;5073254;28;20032;-63
2022/06/27 01:17:34;;;;;;;6.43;4.28;;;22.50;91.80;;;;;;5060255;28;20032;-63
2022/06/27 01:20:00;;;;;;;6.13;4.43;;;22.40;91.90;;;;;;5070946;28;20043;-64
2022/06/27 01:22:26;;;;;;;7.20;4.90;;;22.40;91.90;;;;;;5064273;28;20469;-64
2022/06/27 01:24:54;;;;;;;10.55;4.70;;;22.40;92.00;;;;;;5064725;28;20031;-63
2022/06/27 01:27:21;;;;;;;5.97;4.47;;;22.40;92.10;;;;;;5064827;28;20508;-63
2022/06/27 01:29:47;;;;;;;8.40;5.25;;;22.40;92.20;;;;;;5061210;28;20039;-63
2022/06/27 01:32:15;;;;;;;8.82;5.13;;;22.40;92.20;;;;;;5053072;28;20032;-63
2022/06/27 01:34:41;;;;;;;7.60;4.70;;;22.40;92.20;;;;;;5056010;28;20036;-63
2022/06/27 01:37:07;;;;;;;10.77;5.20;;;22.40;92.20;;;;;;5057284;28;20029;-63
2022/06/27 01:39:39;;;;;;;8.80;4.53;;;22.40;92.20;;;;;;5068244;28;20043;-63
2022/06/27 01:42:06;;;;;;;6.75;5.03;;;22.40;92.20;;;;;;5063642;28;20482;-63
2022/06/27 01:44:34;;;;;;;6.47;4.85;;;22.40;92.20;;;;;;5080953;28;20061;-63
2022/06/27 01:46:59;;;;;;;5.60;3.72;;;22.40;92.10;;;;;;5055280;28;20033;-63
2022/06/27 01:49:27;;;;;;;10.48;4.28;;;22.30;91.90;;;;;;5063953;28;20021;-63
2022/06/27 01:51:55;;;;;;;8.32;4.03;;;22.30;91.80;;;;;;5067135;28;20028;-63
2022/06/27 01:54:23;;;;;;;7.93;4.03;;;22.30;91.70;;;;;;5070463;28;20108;-63
2022/06/27 01:56:50;;;;;;;8.15;4.97;;;22.20;91.50;;;;;;5057324;28;20035;-63
2022/06/27 01:59:18;;;;;;;10.15;5.05;;;22.20;91.70;;;;;;5071118;28;20119;-63
2022/06/27 02:01:45;;;;;;;7.50;4.78;;;22.20;91.90;;;;;;5069290;28;20028;-63
2022/06/27 02:04:13;;;;;;;7.88;5.22;;;22.20;92.00;;;;;;5062081;28;20036;-63
2022/06/27 02:06:41;;;;;;;7.90;5.22;;;22.20;92.10;;;;;;5067374;28;20731;-63
2022/06/27 02:09:11;;;;;;;10.02;5.95;;;22.10;92.10;;;;;;5060797;28;20082;-63
2022/06/27 02:11:41;;;;;;;8.75;5.68;;;22.20;92.20;;;;;;5083689;28;20051;-63
2022/06/27 02:14:12;;;;;;;7.32;4.97;;;22.20;92.30;;;;;;5060890;28;20032;-63
2022/06/27 02:16:41;;;;;;;8.75;5.20;;;22.20;92.40;;;;;;5051130;28;20025;-63
2022/06/27 02:19:09;;;;;;;11.93;5.22;;;22.20;92.40;;;;;;5059800;28;20043;-63
2022/06/27 02:21:38;;;;;;;12.32;5.18;;;22.20;92.40;;;;;;5055926;28;20025;-63
2022/06/27 02:24:08;;;;;;;9.10;5.25;;;22.20;92.40;;;;;;5064698;28;20063;-63
2022/06/27 02:26:34;;;;;;;10.13;5.63;;;22.20;92.50;;;;;;5065671;28;20029;-63
2022/06/27 02:29:00;;;;;;;9.98;5.53;;;22.10;92.50;;;;;;5059075;28;20090;-63
2022/06/27 02:31:29;;;;;;;8.00;5.22;;;22.10;92.40;;;;;;5056781;28;20472;-63
2022/06/27 02:33:57;;;;;;;7.65;5.53;;;22.10;92.40;;;;;;5064086;28;20020;-63
2022/06/27 02:36:36;;;;;;;10.18;5.88;;;22.10;92.50;;;;;;5058225;28;20429;-63
2022/06/27 02:39:03;;;;;;;7.97;5.88;;;22.10;92.50;;;;;;5051777;28;20472;-63
2022/06/27 02:41:37;;;;;;;12.15;6.80;;;22.10;92.40;;;;;;5057026;28;20037;-63
2022/06/27 02:44:07;;;;;;;9.35;6.13;;;22.10;92.50;;;;;;5058363;28;20016;-63
2022/06/27 02:46:33;;;;;;;10.85;6.00;;;22.10;92.50;;;;;;5060052;28;20032;-63
2022/06/27 02:49:00;;;;;;;8.95;5.60;;;22.10;92.40;;;;;;5068592;28;20025;-63
2022/06/27 02:51:33;;;;;;;11.60;5.53;;;22.10;92.40;;;;;;5060996;28;20434;-63
2022/06/27 02:54:09;;;;;;;8.18;5.10;;;22.00;92.30;;;;;;5069374;28;20028;-63
2022/06/27 02:57:02;;;;;;;6.20;4.72;;;22.00;92.30;;;;;;5056421;28;20033;-63
2022/06/27 02:59:37;;;;;;;6.75;5.15;;;22.00;92.40;;;;;;5056815;28;20043;-63
2022/06/27 03:02:09;;;;;;;8.80;5.05;;;22.00;92.30;;;;;;5054837;28;20112;-63
2022/06/27 03:04:56;;;;;;;11.13;5.57;;;22.00;92.20;;;;;;5062892;28;20056;-63
2022/06/27 03:07:22;;;;;;;9.65;5.65;;;22.00;92.10;;;;;;5062924;28;20421;-63
2022/06/27 03:09:48;;;;;;;13.18;5.15;;;22.00;92.10;;;;;;5063657;28;20060;-63
2022/06/27 03:12:14;;;;;;;8.98;5.30;;;22.00;92.10;;;;;;5050504;28;20048;-63
2022/06/27 03:14:40;;;;;;;8.48;5.10;;;22.00;92.10;;;;;;5060746;28;20384;-63
2022/06/27 03:17:06;;;;;;;7.65;5.05;;;21.90;92.20;;;;;;5050077;28;20041;-63
2022/06/27 03:19:45;;;;;;;7.30;4.68;;;21.90;92.10;;;;;;5069238;28;20048;-63
2022/06/27 03:22:33;;;;;;;9.50;5.72;;;22.00;92.00;;;;;;5053666;28;20033;-63
2022/06/27 03:24:59;;;;;;;6.88;4.65;;;21.90;92.00;;;;;;5060615;28;20028;-63
2022/06/27 03:27:26;;;;;;;6.90;4.80;;;21.90;92.00;;;;;;5053607;28;20026;-63
2022/06/27 03:29:53;;;;;;;10.63;5.07;;;21.90;92.00;;;;;;5068734;28;20024;-63
2022/06/27 03:32:19;;;;;;;7.88;5.65;;;21.90;92.30;;;;;;5056439;28;20032;-63
2022/06/27 03:34:53;;;;;;;8.55;5.38;;;21.80;92.50;;;;;;5069362;28;20033;-63
2022/06/27 03:37:26;;;;;;;9.77;5.03;;;21.80;92.60;;;;;;5066578;28;20056;-63
2022/06/27 03:39:54;;;;;;;8.27;4.82;;;21.80;92.70;;;;;;5049828;28;20041;-63
2022/06/27 03:42:19;;;;;;;8.50;5.20;;;21.90;92.70;;;;;;5065801;28;20028;-63
2022/06/27 03:44:48;;;;;;;8.93;4.20;;;21.80;92.40;;;;;;5071764;28;20101;-63
2022/06/27 03:47:14;;;;;;;9.68;5.00;;;21.80;92.30;;;;;;5070465;28;20468;-63
2022/06/27 03:50:13;;;;;;;5.15;3.78;;;21.80;92.80;;;;;;5035676;28;20024;-63
2022/06/27 03:52:40;;;;;;;7.82;4.75;;;21.80;92.80;;;;;;5073241;28;20024;-66
2022/06/27 03:55:07;;;;;;;5.57;4.53;;;21.80;92.50;;;;;;5058611;28;20081;-63
2022/06/27 03:57:36;;;;;;;9.75;4.43;;;21.70;92.70;;;;;;5062684;28;20091;-63
2022/06/27 04:00:04;;;;;;;8.32;4.53;;;21.70;92.90;;;;;;5065756;28;20057;-63
2022/06/27 04:02:39;;;;;;;5.70;4.32;;;21.70;93.10;;;;;;5066659;28;20035;-62
2022/06/27 04:05:25;;;;;;;6.60;4.35;;;21.70;93.20;;;;;;5062268;28;20074;-63
2022/06/27 04:07:50;;;;;;;7.05;4.20;;;21.70;93.30;;;;;;5058123;28;20117;-63
2022/06/27 04:10:16;;;;;;;7.07;4.43;;;21.70;93.40;;;;;;5071957;28;20067;-63
2022/06/27 04:12:42;;;;;;;6.10;4.50;;;21.70;93.50;;;;;;5069535;28;20120;-63
2022/06/27 04:15:40;;;;;;;10.85;4.75;;;21.70;93.60;;;;;;5046510;28;20041;-63
2022/06/27 04:18:24;;;;;;;5.13;3.75;;;21.70;93.70;;;;;;5064128;28;20039;-63
2022/06/27 04:21:03;;;;;;;4.97;3.42;;;21.70;93.70;;;;;;5068285;28;20033;-63
2022/06/27 04:23:51;;;;;;;6.13;4.03;;;21.70;93.80;;;;;;5065812;28;20039;-63
2022/06/27 04:26:25;;;;;;;6.05;3.65;;;21.70;93.90;;;;;;5064042;28;20086;-63
2022/06/27 04:28:51;;;;;;;6.55;3.67;;;21.70;93.70;;;;;;5057327;28;20484;-62
2022/06/27 04:31:18;;;;;;;5.22;3.35;;;21.60;93.80;;;;;;5053579;28;20369;-63
2022/06/27 04:33:44;;;;;;;9.32;3.83;;;21.70;93.80;;;;;;5068290;28;20115;-63
2022/06/27 04:36:11;;;;;;;5.90;3.70;;;21.70;94.10;;;;;;5064898;28;20132;-63
2022/06/27 04:38:36;;;;;;;5.70;4.00;;;21.70;93.90;;;;;;5065970;28;20060;-63
2022/06/27 04:41:09;;;;;;;7.85;3.95;;;21.60;93.80;;;;;;5060483;28;20079;-63
2022/06/27 04:43:38;;;;;;;6.93;3.83;;;21.60;93.90;;;;;;5065785;28;20024;-63
2022/06/27 04:46:05;;;;;;;6.90;3.60;;;21.70;93.90;;;;;;5070742;28;20116;-63
2022/06/27 04:48:49;;;;;;;7.07;3.67;;;21.70;94.00;;;;;;5069749;28;20098;-63
2022/06/27 04:51:16;;;;;;;4.88;3.55;;;21.70;94.00;;;;;;5065047;28;20433;-63
2022/06/27 04:53:43;;;;;;;6.55;3.60;;;21.60;94.00;;;;;;5072472;28;20504;-63
2022/06/27 04:56:10;;;;;;;6.85;3.65;;;21.60;94.20;;;;;;5072718;28;20419;-63
2022/06/27 04:58:36;;;;;;;5.97;3.58;;;21.60;94.20;;;;;;5065122;28;20044;-63
2022/06/27 05:01:02;;;;;;;4.95;3.53;;;21.70;94.20;;;;;;5059582;28;20044;-63
2022/06/27 05:04:03;;;;;;;7.70;3.70;;;21.60;94.20;;;;;;5045047;28;20124;-63
2022/06/27 05:06:34;;;;;;;9.45;3.38;;;21.60;94.20;;;;;;5069313;28;20032;-63
2022/06/27 05:09:02;;;;;;;5.93;4.10;;;21.60;94.30;;;;;;5060120;28;20025;-63
2022/06/27 05:11:27;;;;;;;6.32;3.50;;;21.60;94.30;;;;;;5070468;28;20024;-63
2022/06/27 05:13:53;;;;;;;4.40;3.13;;;21.60;94.40;;;;;;5072719;28;20037;-63
2022/06/27 05:16:31;;;;;;;4.10;3.08;;;21.60;94.40;;;;;;5059145;28;20039;-62
2022/06/27 05:18:58;;;;;;;6.05;3.60;;;21.60;94.40;;;;;;5061643;28;20120;-63
2022/06/27 05:21:23;;;;;;;5.07;2.90;;;21.60;94.40;;;;;;5058976;28;20120;-62
2022/06/27 05:23:50;;;;;;;5.00;2.97;;;21.60;94.40;;;;;;5056431;28;20028;-63
2022/06/27 05:26:16;;;;;;;5.78;2.83;;;21.60;94.40;;;;;;5057570;28;20070;-62
2022/06/27 05:28:42;;;;;;;5.10;3.00;;;21.60;94.40;;;;;;5065939;28;20025;-62
2022/06/27 05:31:09;;;;;;;6.45;2.83;;;21.60;94.40;;;;;;5067831;28;20095;-63
2022/06/27 05:33:36;;;;;;;4.82;3.35;;;21.60;94.40;;;;;;5058356;28;20025;-64
2022/06/27 05:36:03;;;;;;;4.40;3.22;;;21.60;94.30;;;;;;5055533;28;20021;-64
2022/06/27 05:38:29;;;;;;;3.97;3.15;;;21.60;94.30;;;;;;5052982;28;20488;-64
2022/06/27 05:40:55;;;;;;;6.18;3.40;;;21.60;94.30;;;;;;5057916;28;20043;-63
2022/06/27 05:43:22;;;;;;;7.32;2.95;;;21.70;94.30;;;;;;5059482;28;20024;-64
2022/06/27 05:45:48;;;;;;;4.75;3.40;;;21.60;94.20;;;;;;5056945;28;20461;-64
2022/06/27 05:48:32;;;;;;;5.05;2.85;;;21.60;94.10;;;;;;5063666;28;20082;-64
2022/06/27 05:51:20;;;;;;;5.80;2.90;;;21.70;94.20;;;;;;5066333;28;20116;-64
2022/06/27 05:53:48;;;;;;;5.82;3.22;;;21.70;94.10;;;;;;5056950;28;20078;-65
2022/06/27 05:56:14;;;;;;;4.57;2.97;;;21.70;94.10;;;;;;5065239;28;20029;-64
2022/06/27 05:58:41;;;;;;;3.65;2.90;;;21.70;94.10;;;;;;5066965;28;20023;-64
2022/06/27 06:01:09;;;;;;;4.63;2.83;;;21.70;94.20;;;;;;5059864;28;20037;-64
2022/06/27 06:03:36;;;;;;;8.05;3.30;;;21.70;94.20;;;;;;5051047;28;20534;-64
2022/06/27 06:06:03;;;;;;;6.55;3.38;;;21.70;94.10;;;;;;5058834;28;20045;-64
2022/06/27 06:08:29;;;;;;;4.82;3.30;;;21.70;94.10;;;;;;5054200;28;20049;-63
2022/06/27 06:10:55;;;;;;;10.32;3.40;;;21.70;94.10;;;;;;5057802;28;20039;-63
2022/06/27 06:13:22;;;;;;;6.88;2.92;;;21.70;94.00;;;;;;5063669;28;20051;-63
2022/06/27 06:15:48;;;;;;;3.22;2.60;;;21.70;94.00;;;;;;5064813;28;20025;-64
2022/06/27 06:18:14;;;;;;;4.65;2.70;;;21.70;94.00;;;;;;5066599;28;20021;-63
2022/06/27 06:20:46;;;;;;;4.10;3.05;;;21.70;94.00;;;;;;5058521;28;20043;-63
2022/06/27 06:23:12;;;;;;;5.10;2.97;;;21.80;94.00;;;;;;5061601;28;20044;-63
2022/06/27 06:25:38;;;;;;;6.18;3.65;;;21.70;93.90;;;;;;5058667;28;20040;-64
2022/06/27 06:28:05;;;;;;;7.75;4.00;;;21.80;93.80;;;;;;5064113;28;20032;-63
2022/06/27 06:30:31;;;;;;;5.50;3.05;;;21.80;93.80;;;;;;5062693;28;20028;-63
2022/06/27 06:33:04;;;;;;;8.27;2.80;;;21.80;93.60;;;;;;5065243;28;20494;-64
2022/06/27 06:35:33;;;;;;;3.97;3.13;;;21.90;93.60;;;;;;5080865;28;20053;-64
2022/06/27 06:38:00;;;;;;;15.50;4.63;;;21.90;93.50;;;;;;5062209;28;20096;-63
2022/06/27 06:40:27;;;;;;;6.30;3.67;;;21.90;93.50;;;;;;5055977;28;20094;-64
2022/06/27 06:42:54;;;;;;;5.00;2.70;;;21.90;93.40;;;;;;5063492;28;20021;-63
2022/06/27 06:45:31;;;;;;;7.78;3.33;;;21.80;93.50;;;;;;5059424;28;20037;-63
2022/06/27 06:48:08;;;;;;;3.22;2.67;;;21.80;93.50;;;;;;5059247;28;20028;-63
2022/06/27 06:50:34;;;;;;;15.90;2.90;;;21.90;93.70;;;;;;5068651;28;20094;-65
2022/06/27 06:53:01;;;;;;;7.22;3.17;;;21.90;93.20;;;;;;5065749;28;20029;-67
2022/06/27 06:55:27;;;;;;;5.53;2.80;;;21.80;93.20;;;;;;5067540;28;20039;-64
2022/06/27 06:57:56;;;;;;;7.68;2.80;;;21.80;93.30;;;;;;5066895;28;20028;-64
2022/06/27 07:00:22;;;;;;;3.50;2.80;;;21.90;93.40;;;;;;5065235;28;20040;-64
2022/06/27 07:02:48;;;;;;;5.57;3.08;;;21.90;93.50;;;;;;5061909;28;20020;-64
2022/06/27 07:05:16;;;;;;;3.95;3.20;;;21.90;93.50;;;;;;5063744;28;20492;-63
2022/06/27 07:07:42;;;;;;;4.53;3.03;;;21.80;93.50;;;;;;5057341;28;20121;-64
2022/06/27 07:10:09;;;;;;;6.70;3.28;;;21.90;93.80;;;;;;5066746;28;20043;-64
2022/06/27 07:12:36;;;;;;;4.85;2.88;;;21.90;93.60;;;;;;5058173;28;20033;-63
2022/06/27 07:15:05;;;;;;;9.23;2.80;;;21.90;93.40;;;;;;5064513;28;20045;-63
2022/06/27 07:17:46;;;;;;;4.32;2.80;;;21.90;93.10;;;;;;5062286;28;20045;-63
2022/06/27 07:20:14;;;;;;;5.57;2.53;;;21.90;92.50;;;;;;5074492;28;20037;-64
2022/06/27 07:22:42;;;;;;;5.57;2.80;;;21.80;92.30;;;;;;5075064;28;20017;-63
2022/06/27 07:25:09;;;;;;;5.55;2.90;;;21.70;92.20;;;;;;5072536;28;20483;-63
2022/06/27 07:27:35;;;;;;;3.92;2.80;;;21.70;92.10;;;;;;5074174;28;20510;-63
2022/06/27 07:30:03;;;;;;;4.30;2.95;;;21.70;92.10;;;;;;5067639;28;20393;-63
2022/06/27 07:32:30;;;;;;;5.05;2.72;;;21.70;92.30;;;;;;5067830;28;20035;-63
2022/06/27 07:34:57;;;;;;;4.00;2.97;;;21.60;92.40;;;;;;5072076;28;20024;-63
2022/06/27 07:37:23;;;;;;;4.25;3.08;;;21.70;92.10;;;;;;5070213;28;20072;-64
2022/06/27 07:39:49;;;;;;;4.97;2.90;;;21.60;92.00;;;;;;5069074;28;20033;-64
2022/06/27 07:42:15;;;;;;;3.55;2.63;;;21.60;92.00;;;;;;5066731;28;20094;-63
2022/06/27 07:44:41;;;;;;;5.75;2.83;;;21.60;92.00;;;;;;5069736;28;20119;-64
2022/06/27 07:47:08;;;;;;;3.70;2.95;;;21.60;92.00;;;;;;5066213;28;20154;-64
2022/06/27 07:49:33;;;;;;;6.32;4.15;;;21.60;92.20;;;;;;5071795;28;20036;-64
2022/06/27 07:52:00;;;;;;;6.38;3.55;;;21.60;92.50;;;;;;5065368;28;20032;-64
2022/06/27 07:54:27;;;;;;;5.53;3.60;;;21.60;92.70;;;;;;5065123;28;20039;-64
2022/06/27 07:56:53;;;;;;;4.88;3.72;;;21.60;93.10;;;;;;5060400;28;20047;-64
2022/06/27 07:59:20;;;;;;;4.45;3.22;;;21.70;93.20;;;;;;5070473;28;20025;-64
2022/06/27 08:01:46;;;;;;;6.32;3.65;;;21.70;92.90;;;;;;5061035;28;20037;-64
2022/06/27 08:04:14;;;;;;;7.10;3.70;;;21.70;93.10;;;;;;5061012;28;20037;-64
2022/06/27 08:06:42;;;;;;;5.07;3.53;;;21.70;92.90;;;;;;5067632;28;20387;-64
2022/06/27 08:09:08;;;;;;;4.13;3.58;;;21.70;92.80;;;;;;5066485;28;20029;-64
2022/06/27 08:11:37;;;;;;;3.83;3.17;;;21.70;92.90;;;;;;5074061;28;20036;-64
2022/06/27 08:14:17;;;;;;;8.48;3.80;;;21.70;92.80;;;;;;5063431;28;20383;-65
2022/06/27 08:16:45;;;;;;;5.55;3.90;;;21.70;92.80;;;;;;5065971;28;20055;-63
2022/06/27 08:19:12;;;;;;;5.68;4.20;;;21.70;93.00;;;;;;5058074;28;20036;-62
2022/06/27 08:21:41;;;;;;;6.78;4.55;;;21.70;93.20;;;;;;5065163;28;20044;-62
2022/06/27 08:24:11;;;;;;;6.65;4.13;;;21.80;93.30;;;;;;5064223;28;20497;-63
2022/06/27 08:26:39;;;;;;;5.18;4.45;;;21.80;93.40;;;;;;5071792;28;20162;-63
2022/06/27 08:29:05;;;;;;;6.05;4.40;;;21.80;93.60;;;;;;5066288;28;20033;-64
2022/06/27 08:31:33;;;;;;;9.63;5.40;;;21.90;93.70;;;;;;5070870;28;20059;-63
2022/06/27 08:34:03;;;;;;;7.18;4.15;;;21.90;93.80;;;;;;5069673;28;20025;-64
2022/06/27 08:36:31;;;;;;;6.68;4.22;;;22.00;93.70;;;;;;5070609;28;20055;-63
2022/06/27 08:39:07;;;;;;;7.35;4.10;;;21.90;93.70;;;;;;5055870;28;20033;-63
2022/06/27 08:41:34;;;;;;;4.80;4.00;;;22.00;93.80;;;;;;5070033;28;20095;-63
2022/06/27 08:44:00;;;;;;;13.05;4.85;;;22.00;93.80;;;;;;5070934;28;20112;-63
2022/06/27 08:46:28;;;;;;;8.50;4.95;;;22.00;93.80;;;;;;5073585;28;20028;-63
2022/06/27 08:48:55;;;;;;;8.70;4.75;;;22.00;93.90;;;;;;5058207;28;20035;-64
2022/06/27 08:51:21;;;;;;;9.65;4.55;;;22.00;93.90;;;;;;5064092;28;20036;-64
2022/06/27 08:53:53;;;;;;;6.40;4.40;;;22.00;93.90;;;;;;5058569;28;20032;-64
2022/06/27 08:56:20;;;;;;;5.40;4.20;;;22.00;94.30;;;;;;5072301;28;20036;-64
2022/06/27 08:58:47;;;;;;;6.22;4.40;;;22.00;94.00;;;;;;5061805;28;20361;-64
2022/06/27 09:01:22;;;;;;;7.93;5.05;;;22.00;94.10;;;;;;5062441;28;20049;-63
2022/06/27 09:04:00;;;;;;;6.45;5.15;;;22.10;94.10;;;;;;5062144;28;20036;-63
2022/06/27 09:06:51;;;;;;;6.72;5.38;;;22.10;94.00;;;;;;5072693;28;20090;-64
2022/06/27 09:09:17;;;;;;;7.25;4.60;;;22.10;94.00;;;;;;5072771;28;20039;-64
2022/06/27 09:11:45;;;;;;;5.88;4.25;;;22.10;94.10;;;;;;5072777;28;20451;-64
2022/06/27 09:14:30;;;;;;;7.53;5.32;;;22.10;94.00;;;;;;5072107;28;20103;-64
2022/06/27 09:16:58;;;;;;;7.68;4.70;;;22.10;93.60;;;;;;5064616;28;20043;-64
2022/06/27 09:19:53;;;;;;;4.90;4.03;;;22.00;93.50;;;;;;5057989;28;20021;-64
2022/06/27 09:22:21;;;;;;;6.30;4.80;;;22.00;93.00;;;;;;5072198;28;20487;-64
2022/06/27 09:25:00;;;;;;;9.48;4.63;;;21.90;92.80;;;;;;5065449;28;20078;-63
2022/06/27 09:27:45;;;;;;;6.28;4.80;;;21.90;93.20;;;;;;5067246;28;20024;-64
2022/06/27 09:30:21;;;;;;;7.60;5.32;;;22.00;93.30;;;;;;5071521;28;20032;-64
2022/06/27 09:32:51;;;;;;;6.47;5.25;;;22.00;93.50;;;;;;5070756;28;20389;-64
2022/06/27 09:35:31;;;;;;;6.43;4.88;;;22.00;93.80;;;;;;5072683;28;20370;-63
2022/06/27 09:38:00;;;;;;;5.82;4.88;;;22.00;93.50;;;;;;5061083;28;20037;-63
2022/06/27 09:40:29;;;;;;;6.60;5.65;;;22.00;93.20;;;;;;5052685;28;20037;-64
2022/06/27 09:42:56;;;;;;;9.63;5.75;;;22.00;92.80;;;;;;5058853;28;20074;-63
2022/06/27 09:45:27;;;;;;;10.18;5.60;;;22.00;92.80;;;;;;5065888;28;20039;-64
2022/06/27 09:48:01;;;;;;;7.20;5.22;;;22.00;92.70;;;;;;5072284;28;20372;-63
2022/06/27 09:50:33;;;;;;;6.55;5.15;;;22.00;92.30;;;;;;5054875;28;20033;-64
2022/06/27 09:53:02;;;;;;;6.70;5.57;;;21.90;92.10;;;;;;5064525;28;20036;-64
2022/06/27 09:55:29;;;;;;;9.05;5.50;;;21.90;92.50;;;;;;5059198;28;20033;-64
2022/06/27 09:57:56;;;;;;;7.13;5.35;;;22.00;92.40;;;;;;5071104;28;20029;-64
2022/06/27 10:00:23;;;;;;;10.23;5.35;;;21.90;92.40;;;;;;5058522;28;20135;-63
2022/06/27 10:02:51;;;;;;;7.47;5.15;;;22.00;92.70;;;;;;5069773;28;20170;-64
2022/06/27 10:05:18;;;;;;;6.85;4.97;;;22.00;93.00;;;;;;5059213;28;20385;-63
2022/06/27 10:07:58;;;;;;;7.95;5.47;;;22.00;93.10;;;;;;5070438;28;20028;-64
2022/06/27 10:10:26;;;;;;;6.30;5.15;;;22.10;93.20;;;;;;5062904;28;20115;-64
2022/06/27 10:13:00;;;;;;;6.00;5.18;;;22.10;93.30;;;;;;5069760;28;20025;-64
2022/06/27 10:15:32;;;;;;;6.50;5.38;;;22.10;93.40;;;;;;5070971;28;20481;-63
2022/06/27 10:18:01;;;;;;;6.43;5.00;;;22.10;93.50;;;;;;5056019;28;20025;-64
2022/06/27 10:20:30;;;;;;;7.10;4.47;;;22.20;93.50;;;;;;5063824;28;20178;-64
2022/06/27 10:23:14;;;;;;;6.47;4.40;;;22.20;93.00;;;;;;5068091;28;20024;-64
2022/06/27 10:25:44;;;;;;;6.60;4.43;;;22.20;92.90;;;;;;5067920;28;20365;-64
2022/06/27 10:28:11;;;;;;;6.25;4.03;;;22.20;93.20;;;;;;5063869;28;20622;-64
2022/06/27 10:30:43;;;;;;;5.60;4.32;;;22.20;93.20;;;;;;5069938;28;20024;-64
2022/06/27 10:33:21;;;;;;;6.00;4.25;;;22.30;93.10;;;;;;5068592;28;20080;-64
2022/06/27 10:35:59;;;;;;;14.82;4.95;;;22.20;92.90;;;;;;5070517;28;20034;-64
2022/06/27 10:38:27;;;;;;;5.45;4.18;;;22.30;92.90;;;;;;5062012;28;20120;-64
2022/06/27 10:40:55;;;;;;;5.22;4.10;;;22.30;92.70;;;;;;5068847;28;20492;-64
2022/06/27 10:43:39;;;;;;;5.28;3.90;;;22.30;92.40;;;;;;5065546;28;20063;-64
2022/06/27 10:46:10;;;;;;;6.85;3.97;;;22.40;92.20;;;;;;5065752;28;20071;-64
2022/06/27 10:48:47;;;;;;;4.88;3.95;;;22.30;92.10;;;;;;5064435;28;20024;-64
2022/06/27 10:51:24;;;;;;;5.85;4.40;;;22.30;92.20;;;;;;5066601;28;20540;-64
2022/06/27 10:53:52;;;;;;;7.13;3.90;;;22.30;92.20;;;;;;5069585;28;20105;-64
2022/06/27 10:56:36;;;;;;;6.20;4.57;;;22.30;92.00;;;;;;5069609;28;20033;-64
2022/06/27 10:59:04;;;;;;;5.32;3.63;;;22.30;91.90;;;;;;5071862;28;20025;-64
2022/06/27 11:01:33;;;;;;;4.53;3.85;;;22.40;92.00;;;;;;5072977;28;20127;-64
2022/06/27 11:03:59;;;;;;;5.57;3.50;;;22.40;92.00;;;;;;5072035;28;20460;-64
2022/06/27 11:06:26;;;;;;;4.18;2.85;;;22.50;91.90;;;;;;5072395;28;20086;-64
2022/06/27 11:08:54;;;;;;;5.47;3.78;;;22.50;91.60;;;;;;5074675;28;20028;-64
2022/06/27 11:11:25;;;;;;;4.10;3.38;;;22.50;91.40;;;;;;5070753;28;20040;-64
2022/06/27 11:13:55;;;;;;;11.27;3.90;;;22.60;91.20;;;;;;5072082;28;20040;-64
2022/06/27 11:16:27;;;;;;;4.80;3.60;;;22.60;91.30;;;;;;5072449;28;20114;-64
2022/06/27 11:18:58;;;;;;;4.97;3.67;;;22.70;91.30;;;;;;5070029;28;20024;-64
2022/06/27 11:21:36;;;;;;;4.80;3.58;;;22.70;91.10;;;;;;5069723;28;20799;-64
2022/06/27 11:24:04;;;;;;;4.07;3.17;;;22.80;91.20;;;;;;5071490;28;20165;-64
2022/06/27 11:26:34;;;;;;;5.63;3.75;;;22.80;91.30;;;;;;5071208;28;20037;-64
2022/06/27 11:32:03;;;;;;;5.40;3.70;;;22.90;90.80;;;;;;5070381;28;20033;-64
2022/06/27 11:34:35;;;;;;;4.55;3.85;;;22.90;90.80;;;;;;5069909;28;20446;-64
2022/06/27 11:37:07;;;;;;;5.68;3.58;;;23.00;90.80;;;;;;5068800;28;20033;-64
2022/06/27 11:39:33;;;;;;;6.90;3.42;;;22.90;90.60;;;;;;5067283;28;20036;-64
2022/06/27 11:42:09;;;;;;;6.18;3.38;;;23.00;90.60;;;;;;5067037;28;20036;-64
2022/06/27 11:44:56;;;;;;;6.25;3.83;;;23.00;90.60;;;;;;5067235;28;20064;-64
2022/06/27 11:47:26;;;;;;;5.32;3.50;;;23.10;90.50;;;;;;5070386;28;20032;-64
2022/06/27 11:50:04;;;;;;;5.88;3.95;;;23.20;90.50;;;;;;5066355;28;20071;-64
2022/06/27 11:52:38;;;;;;;6.40;3.67;;;23.20;90.40;;;;;;5068457;28;20021;-64
2022/06/27 11:55:12;;;;;;;5.25;3.65;;;23.30;90.30;;;;;;5069547;28;20146;-64
2022/06/27 11:57:50;;;;;;;3.92;3.28;;;23.30;90.20;;;;;;5070576;28;20115;-64
2022/06/27 12:00:22;;;;;;;5.00;3.42;;;23.30;90.20;;;;;;5069768;28;20055;-63
2022/06/27 12:03:10;;;;;;;4.78;3.63;;;23.30;90.20;;;;;;5070262;28;20535;-64
2022/06/27 12:05:38;;;;;;;4.97;3.70;;;23.40;90.60;;;;;;5069196;28;20056;-65
2022/06/27 12:08:09;;;;;;;5.45;3.85;;;23.40;90.90;;;;;;5069078;28;20459;-64
2022/06/27 12:10:35;;;;;;;11.45;3.88;;;23.40;90.70;;;;;;5068257;28;20095;-64
2022/06/27 12:13:19;;;;;;;4.25;3.50;;;23.40;90.70;;;;;;5069250;28;20384;-64
2022/06/27 12:15:46;;;;;;;4.90;3.88;;;23.40;90.70;;;;;;5073119;28;20029;-64
2022/06/27 12:18:13;;;;;;;6.13;3.85;;;23.40;90.80;;;;;;5073057;28;20042;-64
2022/06/27 12:20:41;;;;;;;5.18;4.03;;;23.40;90.70;;;;;;5065595;28;20094;-65
2022/06/27 12:23:07;;;;;;;5.75;3.85;;;23.40;90.70;;;;;;5067054;28;20462;-64
2022/06/27 12:25:35;;;;;;;4.43;3.55;;;23.40;90.70;;;;;;5072315;28;20568;-64
2022/06/27 12:28:06;;;;;;;6.63;4.28;;;23.40;90.80;;;;;;5073067;28;20544;-64
2022/06/27 12:30:33;;;;;;;4.80;3.83;;;23.40;90.90;;;;;;5062107;28;20027;-63
2022/06/27 12:32:59;;;;;;;5.88;4.07;;;23.40;90.90;;;;;;5067189;28;20542;-63
2022/06/27 12:35:25;;;;;;;7.10;4.10;;;23.50;90.90;;;;;;5066015;28;20036;-64
2022/06/27 12:37:51;;;;;;;6.15;4.07;;;23.40;91.00;;;;;;5072749;28;20024;-65
2022/06/27 12:40:16;;;;;;;6.20;4.43;;;23.50;91.00;;;;;;5070599;28;20035;-64
2022/06/27 12:42:45;;;;;;;6.45;4.75;;;23.40;91.20;;;;;;5060028;28;20028;-65
2022/06/27 12:45:11;;;;;;;6.53;4.30;;;23.40;91.00;;;;;;5061225;28;20123;-65
2022/06/27 12:47:37;;;;;;;7.97;4.18;;;23.40;91.10;;;;;;5070364;28;20093;-65
2022/06/27 12:50:03;;;;;;;6.78;4.00;;;23.50;91.10;;;;;;5071024;28;20119;-64
2022/06/27 12:52:29;;;;;;;5.20;3.90;;;23.40;91.00;;;;;;5063408;28;20056;-64
2022/06/27 12:54:54;;;;;;;5.75;3.70;;;23.40;91.00;;;;;;5066895;28;20507;-65
2022/06/27 12:57:20;;;;;;;5.15;3.60;;;23.40;91.00;;;;;;5063916;28;20044;-65
2022/06/27 12:59:46;;;;;;;4.30;3.45;;;23.50;90.90;;;;;;5069625;28;20042;-64
2022/06/27 13:02:15;;;;;;;8.32;3.95;;;23.50;90.90;;;;;;5067718;28;20099;-64